createdAt,value
2019-02-07T00:00:30.608Z,100786.34
2019-02-07T00:03:02.139Z,100780.85
2019-02-07T00:05:33.610Z,100778.85
2019-02-07T00:08:05.107Z,100777.55
2019-02-07T00:10:36.415Z,100769.97
2019-02-07T00:13:07.665Z,100769.78
2019-02-07T00:15:39.184Z,100766.48
2019-02-07T00:18:10.576Z,100764.19
2019-02-07T00:20:42.039Z,100762.80
2019-02-07T00:23:13.410Z,100769.09
2019-02-07T00:25:44.802Z,100759.91
2019-02-07T00:28:16.196Z,100758.52
2019-02-07T00:30:47.720Z,100758.73
2019-02-07T00:33:19.032Z,100757.94
2019-02-07T00:35:50.454Z,100751.05
2019-02-07T00:38:21.743Z,100755.84
2019-02-07T00:40:52.998Z,100745.96
2019-02-07T00:43:24.292Z,100741.27
2019-02-07T00:45:55.627Z,100736.28
2019-02-07T00:48:26.994Z,100734.59
2019-02-07T00:50:58.319Z,100733.67
2019-02-07T00:53:31.879Z,100737.06
2019-02-07T00:56:03.366Z,100731.08
2019-02-07T00:58:34.626Z,100728.58
2019-02-07T01:01:06.233Z,100725.89
2019-02-07T01:03:37.625Z,100719.91
2019-02-07T01:06:10.208Z,100720.59
2019-02-07T01:08:41.742Z,100716.61
2019-02-07T01:11:13.138Z,100712.22
2019-02-07T01:13:44.907Z,100702.44
2019-02-07T01:16:16.216Z,100704.42
2019-02-07T01:18:47.537Z,100709.58
2019-02-07T01:21:18.860Z,100707.05
2019-02-07T01:23:50.234Z,100692.11
2019-02-07T01:26:21.555Z,100683.74
2019-02-07T01:28:52.874Z,100681.02
2019-02-07T01:31:24.381Z,100681.73
2019-02-07T01:33:55.632Z,100675.34
2019-02-07T01:36:26.885Z,100677.54
2019-02-07T01:38:58.169Z,100671.55
2019-02-07T01:41:29.554Z,100665.77
2019-02-07T01:44:00.919Z,100665.06
2019-02-07T01:46:32.314Z,100666.60
2019-02-07T01:49:04.096Z,100663.02
2019-02-07T01:51:35.477Z,100660.95
2019-02-07T01:54:06.935Z,100662.47
2019-02-07T01:56:38.332Z,100666.05
2019-02-07T01:59:09.714Z,100667.87
2019-02-07T02:01:41.033Z,100665.06
2019-02-07T02:04:12.434Z,100665.70
2019-02-07T02:06:43.829Z,100664.94
2019-02-07T02:09:15.204Z,100654.88
2019-02-07T02:11:46.458Z,100650.81
2019-02-07T02:14:17.831Z,100649.47
2019-02-07T02:16:49.230Z,100658.50
2019-02-07T02:19:20.884Z,100652.42
2019-02-07T02:21:52.201Z,100635.74
2019-02-07T02:24:23.649Z,100626.17
2019-02-07T02:26:55.025Z,100627.29
2019-02-07T02:29:26.397Z,100616.02
2019-02-07T02:31:58.174Z,100601.75
2019-02-07T02:34:29.468Z,100597.05
2019-02-07T02:37:00.720Z,100586.86
2019-02-07T02:39:32.156Z,100579.82
2019-02-07T02:42:03.547Z,100576.16
2019-02-07T02:44:35.850Z,100578.92
2019-02-07T02:47:07.239Z,100566.94
2019-02-07T02:49:38.539Z,100577.48
2019-02-07T02:52:09.930Z,100576.73
2019-02-07T02:54:42.884Z,100573.65
2019-02-07T02:57:14.507Z,100571.23
2019-02-07T02:59:47.016Z,100561.75
2019-02-07T03:02:27.232Z,100558.92
2019-02-07T03:05:00.281Z,100570.20
2019-02-07T03:07:48.757Z,100578.07
2019-02-07T03:10:30.608Z,100574.58
2019-02-07T03:13:10.359Z,100550.19
2019-02-07T03:15:49.611Z,100531.07
2019-02-07T03:18:29.919Z,100516.97
2019-02-07T03:21:21.260Z,100519.97
2019-02-07T03:24:00.083Z,100510.89
2019-02-07T03:26:37.290Z,100504.08
2019-02-07T03:29:13.129Z,100520.29
2019-02-07T03:32:02.654Z,100528.39
2019-02-07T03:34:38.377Z,100522.22
2019-02-07T03:37:20.403Z,100511.84
2019-02-07T03:40:09.505Z,100511.84
2019-02-07T03:42:58.622Z,100512.91
2019-02-07T03:45:29.895Z,100509.41
2019-02-07T03:48:18.506Z,100495.14
2019-02-07T03:50:55.461Z,100491.33
2019-02-07T03:53:43.709Z,100480.23
2019-02-07T03:56:32.709Z,100479.09
2019-02-07T03:59:22.164Z,100482.59
2019-02-07T04:02:00.936Z,100484.78
2019-02-07T04:04:50.300Z,100494.09
2019-02-07T04:07:26.155Z,100492.72
2019-02-07T04:10:05.351Z,100500.42
2019-02-07T04:12:50.281Z,100504.63
2019-02-07T04:15:29.299Z,100493.12
2019-02-07T04:18:18.324Z,100482.35
2019-02-07T04:21:00.225Z,100476.44
2019-02-07T04:23:33.124Z,100473.69
2019-02-07T04:26:22.038Z,100467.70
2019-02-07T04:28:55.006Z,100462.02
2019-02-07T04:31:33.757Z,100457.08
2019-02-07T04:34:07.849Z,100459.52
2019-02-07T04:36:40.794Z,100464.06
2019-02-07T04:39:30.562Z,100461.95
2019-02-07T04:42:06.710Z,100462.59
2019-02-07T04:44:50.108Z,100474.36
2019-02-07T04:47:32.390Z,100474.44
2019-02-07T04:50:23.008Z,100462.52
2019-02-07T04:52:59.058Z,100454.80
2019-02-07T04:55:39.390Z,100457.00
2019-02-07T04:58:24.478Z,100453.34
2019-02-07T05:01:06.576Z,100453.52
2019-02-07T05:03:40.852Z,100456.84
2019-02-07T05:06:24.830Z,100472.83
2019-02-07T05:08:56.145Z,100459.44
2019-02-07T05:11:45.701Z,100457.98
2019-02-07T05:14:32.500Z,100452.05
2019-02-07T05:17:21.560Z,100450.91
2019-02-07T05:19:59.093Z,100445.39
2019-02-07T05:22:47.944Z,100433.22
2019-02-07T05:25:21.247Z,100438.25
2019-02-07T05:28:12.439Z,100435.32
2019-02-07T05:31:03.881Z,100428.17
2019-02-07T05:33:48.814Z,100420.69
2019-02-07T05:36:25.720Z,100423.86
2019-02-07T05:39:14.567Z,100413.21
2019-02-07T05:41:47.704Z,100409.47
2019-02-07T05:44:38.761Z,100405.88
2019-02-07T05:47:12.808Z,100401.07
2019-02-07T05:49:48.441Z,100409.54
2019-02-07T05:52:30.541Z,100400.67
2019-02-07T05:55:09.218Z,100399.94
2019-02-07T05:57:42.235Z,100394.73
2019-02-07T06:00:27.535Z,100394.81
2019-02-07T06:03:06.660Z,100402.69
2019-02-07T06:05:40.531Z,100398.68
2019-02-07T06:08:13.508Z,100389.87
2019-02-07T06:10:52.540Z,100399.55
2019-02-07T06:13:32.058Z,100385.72
2019-02-07T06:16:12.519Z,100395.86
2019-02-07T06:19:01.482Z,100390.81
2019-02-07T06:21:35.420Z,100386.91
2019-02-07T06:24:15.547Z,100387.25
2019-02-07T06:26:58.598Z,100393.75
2019-02-07T06:29:31.629Z,100380.19
2019-02-07T06:32:23.190Z,100377.92
2019-02-07T06:35:11.002Z,100367.84
2019-02-07T06:37:44.222Z,100368.18
2019-02-07T06:40:30.744Z,100374.69
2019-02-07T06:43:03.624Z,100368.52
2019-02-07T06:45:36.707Z,100367.22
2019-02-07T06:48:12.319Z,100362.98
2019-02-07T06:51:01.659Z,100361.75
2019-02-07T06:53:43.829Z,100363.61
2019-02-07T06:56:20.275Z,100352.31
2019-02-07T06:59:02.035Z,100354.03
2019-02-07T07:01:40.835Z,100344.59
2019-02-07T07:04:16.843Z,100343.91
2019-02-07T07:07:03.129Z,100343.99
2019-02-07T07:09:34.398Z,100330.24
2019-02-07T07:12:19.963Z,100331.06
2019-02-07T07:14:55.646Z,100324.63
2019-02-07T07:17:31.260Z,100335.44
2019-02-07T07:20:22.895Z,100334.22
2019-02-07T07:23:01.959Z,100337.85
2019-02-07T07:25:42.802Z,100337.92
2019-02-07T07:28:31.955Z,100331.83
2019-02-07T07:31:12.541Z,100341.90
2019-02-07T07:33:53.773Z,100337.11
2019-02-07T07:36:37.199Z,100333.34
2019-02-07T07:39:15.361Z,100338.14
2019-02-07T07:41:51.277Z,100323.98
2019-02-07T07:44:30.309Z,100323.30
2019-02-07T07:47:21.402Z,100328.17
2019-02-07T07:50:03.907Z,100320.50
2019-02-07T07:52:52.089Z,100312.36
2019-02-07T07:55:36.840Z,100319.08
2019-02-07T07:58:10.010Z,100321.89
2019-02-07T08:00:59.015Z,100322.45
2019-02-07T08:03:37.741Z,100327.72
2019-02-07T08:06:10.785Z,100326.83
2019-02-07T08:08:46.576Z,100323.00
2019-02-07T08:11:33.030Z,100320.12
2019-02-07T08:14:07.570Z,100313.27
2019-02-07T08:16:59.167Z,100314.03
2019-02-07T08:19:37.748Z,100304.17
2019-02-07T08:22:26.879Z,100301.30
2019-02-07T08:24:59.815Z,100306.36
2019-02-07T08:27:43.044Z,100286.22
2019-02-07T08:30:19.175Z,100288.54
2019-02-07T08:32:52.133Z,100292.72
2019-02-07T08:35:25.093Z,100284.76
2019-02-07T08:38:14.289Z,100283.69
2019-02-07T08:41:03.558Z,100290.95
2019-02-07T08:43:45.465Z,100284.70
2019-02-07T08:46:21.099Z,100285.38
2019-02-07T08:49:01.096Z,100286.04
2019-02-07T08:51:50.583Z,100282.39
2019-02-07T08:54:39.555Z,100291.70
2019-02-07T08:57:25.880Z,100285.25
2019-02-07T09:00:04.896Z,100284.84
2019-02-07T09:02:51.766Z,100275.38
2019-02-07T09:05:27.427Z,100277.22
2019-02-07T09:08:16.883Z,100273.43
2019-02-07T09:10:57.420Z,100281.31
2019-02-07T09:13:46.536Z,100273.08
2019-02-07T09:16:17.814Z,100271.02
2019-02-07T09:19:07.065Z,100262.91
2019-02-07T09:24:52.966Z,100263.75
2019-02-07T09:27:26.094Z,100259.55
2019-02-07T09:30:20.228Z,100257.90
2019-02-07T09:33:12.348Z,100260.09
2019-02-07T09:36:05.436Z,100265.08
2019-02-07T09:38:40.641Z,100260.40
2019-02-07T09:41:20.004Z,100267.99
2019-02-07T09:43:53.897Z,100275.52
2019-02-07T09:46:39.965Z,100272.20
2019-02-07T09:49:13.607Z,100273.22
2019-02-07T09:51:53.600Z,100265.16
2019-02-07T09:54:26.760Z,100275.54
2019-02-07T09:57:03.741Z,100277.50
2019-02-07T09:59:40.196Z,100283.12
2019-02-07T10:02:28.177Z,100272.30
2019-02-07T10:05:07.112Z,100272.41
2019-02-07T10:07:44.204Z,100263.96
2019-02-07T10:10:29.557Z,100272.08
2019-02-07T10:13:02.715Z,100270.16
2019-02-07T10:15:43.897Z,100261.60
2019-02-07T10:18:32.435Z,100254.77
2019-02-07T10:20:55.267Z,100257.07
2019-02-07T10:23:31.341Z,100254.56
2019-02-07T10:26:26.630Z,100250.34
2019-02-07T10:29:05.343Z,100249.66
2019-02-07T10:31:45.421Z,100246.38
2019-02-07T10:34:21.039Z,100250.87
2019-02-07T10:36:55.152Z,100242.72
2019-02-07T10:39:29.897Z,100247.59
2019-02-07T10:44:57.393Z,100244.61
2019-02-07T10:47:30.512Z,100245.02
2019-02-07T10:50:23.001Z,100239.33
2019-02-07T10:53:14.389Z,100235.03
2019-02-07T10:56:06.465Z,100237.34
2019-02-07T10:58:42.551Z,100249.63
2019-02-07T11:01:31.952Z,100243.14
2019-02-07T11:04:05.387Z,100246.23
2019-02-07T11:06:40.027Z,100245.86
2019-02-07T11:09:26.595Z,100243.82
2019-02-07T11:12:05.459Z,100233.88
2019-02-07T11:14:41.641Z,100230.16
2019-02-07T11:17:17.799Z,100224.30
2019-02-07T11:19:52.312Z,100220.52
2019-02-07T11:22:28.029Z,100215.54
2019-02-07T11:25:03.617Z,100217.59
2019-02-07T11:27:42.521Z,100221.44
2019-02-07T11:30:17.314Z,100223.97
2019-02-07T11:32:55.857Z,100213.41
2019-02-07T11:35:37.824Z,100217.62
2019-02-07T11:38:11.405Z,100220.98
2019-02-07T11:40:50.469Z,100219.85
2019-02-07T11:43:29.758Z,100223.08
2019-02-07T11:46:01.241Z,100215.77
2019-02-07T11:48:34.458Z,100229.84
2019-02-07T11:51:24.218Z,100229.89
2019-02-07T11:54:03.493Z,100232.17
2019-02-07T11:56:36.815Z,100221.92
2019-02-07T11:59:12.494Z,100213.77
2019-02-07T12:01:49.344Z,100205.53
2019-02-07T12:04:24.927Z,100202.40
2019-02-07T12:07:14.076Z,100206.28
2019-02-07T12:09:47.107Z,100210.64
2019-02-07T12:12:23.015Z,100210.51
2019-02-07T12:14:55.729Z,100204.00
2019-02-07T12:17:45.004Z,100207.93
2019-02-07T12:20:19.376Z,100196.02
2019-02-07T12:23:14.707Z,100201.12
2019-02-07T12:25:47.804Z,100201.88
2019-02-07T12:28:36.962Z,100197.95
2019-02-07T12:31:16.088Z,100187.94
2019-02-07T12:34:05.443Z,100185.03
2019-02-07T12:36:41.346Z,100188.63
2019-02-07T12:39:14.506Z,100185.80
2019-02-07T12:41:50.338Z,100180.84
2019-02-07T12:44:32.415Z,100196.91
2019-02-07T12:47:18.539Z,100194.45
2019-02-07T12:50:07.485Z,100206.16
2019-02-07T12:52:57.920Z,100207.34
2019-02-07T12:55:33.800Z,100205.58
2019-02-07T12:58:09.973Z,100204.69
2019-02-07T13:00:47.307Z,100205.58
2019-02-07T13:03:27.344Z,100202.53
2019-02-07T13:06:06.244Z,100203.46
2019-02-07T13:08:41.825Z,100195.17
2019-02-07T13:11:15.031Z,100198.80
2019-02-07T13:13:46.204Z,100206.33
2019-02-07T13:16:34.643Z,100215.16
2019-02-07T13:19:16.905Z,100214.52
2019-02-07T13:21:55.864Z,100218.15
2019-02-07T13:24:42.129Z,100211.20
2019-02-07T13:27:34.348Z,100215.22
2019-02-07T13:30:30.353Z,100214.95
2019-02-07T13:33:04.665Z,100219.90
2019-02-07T13:35:43.833Z,100224.80
2019-02-07T13:38:16.955Z,100216.28
2019-02-07T13:41:06.869Z,100202.05
2019-02-07T13:43:55.841Z,100198.87
2019-02-07T13:46:39.036Z,100188.20
2019-02-07T13:49:13.241Z,100201.00
2019-02-07T13:51:55.294Z,100215.52
2019-02-07T13:54:34.563Z,100219.95
2019-02-07T13:57:06.038Z,100208.63
2019-02-07T13:59:45.546Z,100197.70
2019-02-07T14:02:35.074Z,100199.06
2019-02-07T14:05:26.850Z,100213.45
2019-02-07T14:08:15.889Z,100216.58
2019-02-07T14:10:57.669Z,100220.66
2019-02-07T14:13:35.576Z,100222.08
2019-02-07T14:16:08.599Z,100220.95
2019-02-07T14:18:44.630Z,100230.66
2019-02-07T14:21:29.820Z,100239.93
2019-02-07T14:24:08.817Z,100248.77
2019-02-07T14:26:44.738Z,100250.11
2019-02-07T14:29:36.013Z,100250.57
2019-02-07T14:32:25.177Z,100254.48
2019-02-07T14:35:14.168Z,100251.45
2019-02-07T14:38:03.586Z,100257.14
2019-02-07T14:40:39.311Z,100268.00
2019-02-07T14:43:12.312Z,100253.59
2019-02-07T14:45:54.683Z,100250.50
2019-02-07T14:48:26.298Z,100245.75
2019-02-07T14:50:57.664Z,100251.39
2019-02-07T14:53:29.170Z,100253.55
2019-02-07T14:56:00.592Z,100266.72
2019-02-07T14:58:32.103Z,100271.58
2019-02-07T15:01:03.512Z,100275.52
2019-02-07T15:03:34.882Z,100256.25
2019-02-07T15:06:06.429Z,100260.66
2019-02-07T15:08:37.810Z,100256.71
2019-02-07T15:11:09.948Z,100264.41
2019-02-07T15:13:42.309Z,100266.83
2019-02-07T15:16:15.344Z,100270.89
2019-02-07T15:18:46.862Z,100275.89
2019-02-07T15:21:19.802Z,100265.51
2019-02-07T15:23:51.094Z,100278.02
2019-02-07T15:26:22.373Z,100269.87
2019-02-07T15:28:53.812Z,100268.86
2019-02-07T15:31:25.623Z,100270.86
2019-02-07T15:33:57.210Z,100267.65
2019-02-07T15:36:29.744Z,100272.73
2019-02-07T15:39:01.226Z,100273.03
2019-02-07T15:41:34.107Z,100273.38
2019-02-07T15:44:05.533Z,100267.92
2019-02-07T15:46:37.016Z,100272.62
2019-02-07T15:49:08.530Z,100273.89
2019-02-07T15:51:41.013Z,100275.16
2019-02-07T15:54:13.467Z,100275.16
2019-02-07T15:56:46.414Z,100276.55
2019-02-07T15:59:22.832Z,100285.72
2019-02-07T16:01:58.600Z,100286.61
2019-02-07T16:04:31.098Z,100278.23
2019-02-07T16:07:02.592Z,100281.75
2019-02-07T16:09:34.044Z,100282.17
2019-02-07T16:12:05.921Z,100287.03
2019-02-07T16:14:37.370Z,100287.92
2019-02-07T16:17:08.671Z,100283.10
2019-02-07T16:20:02.374Z,100288.34
2019-02-07T16:22:38.779Z,100292.23
2019-02-07T16:25:14.516Z,100287.87
2019-02-07T16:27:46.203Z,100279.05
2019-02-07T16:30:19.932Z,100271.86
2019-02-07T16:32:51.625Z,100275.63
2019-02-07T16:35:23.570Z,100289.44
2019-02-07T16:37:56.834Z,100287.86
2019-02-07T16:40:29.645Z,100294.33
2019-02-07T16:43:01.099Z,100305.73
2019-02-07T16:45:33.449Z,100302.19
2019-02-07T16:48:05.794Z,100311.73
2019-02-07T16:50:41.019Z,100311.64
2019-02-07T16:53:12.486Z,100314.69
2019-02-07T16:55:49.055Z,100325.39
2019-02-07T16:58:20.241Z,100316.93
2019-02-07T17:00:52.692Z,100323.58
2019-02-07T17:03:27.106Z,100334.99
2019-02-07T17:06:00.293Z,100348.27
2019-02-07T17:08:31.818Z,100354.52
2019-02-07T17:11:05.567Z,100358.63
2019-02-07T17:13:46.211Z,100354.12
2019-02-07T17:16:27.784Z,100358.22
2019-02-07T17:19:00.078Z,100360.17
2019-02-07T17:21:32.931Z,100360.33
2019-02-07T17:24:08.219Z,100356.67
2019-02-07T17:26:39.613Z,100359.97
2019-02-07T17:29:11.264Z,100364.58
2019-02-07T17:31:43.078Z,100366.37
2019-02-07T17:34:14.697Z,100371.50
2019-02-07T17:36:52.137Z,100365.73
2019-02-07T17:39:23.607Z,100369.61
2019-02-07T17:41:59.834Z,100368.66
2019-02-07T17:44:31.327Z,100378.12
2019-02-07T17:47:02.838Z,100374.94
2019-02-07T17:49:34.399Z,100365.67
2019-02-07T17:52:06.302Z,100370.38
2019-02-07T17:54:42.811Z,100372.41
2019-02-07T17:57:14.583Z,100383.95
2019-02-07T17:59:48.006Z,100380.76
2019-02-07T18:02:19.479Z,100378.92
2019-02-07T18:04:52.073Z,100387.07
2019-02-07T18:07:25.559Z,100382.98
2019-02-07T18:09:57.013Z,100380.36
2019-02-07T18:12:28.783Z,100380.78
2019-02-07T18:15:00.328Z,100383.76
2019-02-07T18:17:31.880Z,100382.45
2019-02-07T18:20:05.012Z,100386.31
2019-02-07T18:22:36.451Z,100392.49
2019-02-07T18:25:08.806Z,100398.13
2019-02-07T18:27:42.016Z,100399.33
2019-02-07T18:30:22.335Z,100404.02
2019-02-07T18:32:55.251Z,100408.30
2019-02-07T18:35:26.748Z,100406.34
2019-02-07T18:37:59.797Z,100416.21
2019-02-07T18:40:34.148Z,100430.82
2019-02-07T18:43:06.166Z,100425.00
2019-02-07T18:45:48.852Z,100434.80
2019-02-07T18:48:20.414Z,100440.68
2019-02-07T18:50:51.811Z,100439.73
2019-02-07T18:53:23.396Z,100436.87
2019-02-07T18:55:56.554Z,100438.12
2019-02-07T18:58:28.215Z,100444.11
2019-02-07T19:00:59.646Z,100453.95
2019-02-07T19:03:32.997Z,100459.53
2019-02-07T19:06:04.790Z,100456.86
2019-02-07T19:08:38.054Z,100461.61
2019-02-07T19:11:11.192Z,100463.27
2019-02-07T19:13:42.759Z,100463.52
2019-02-07T19:16:14.624Z,100464.59
2019-02-07T19:18:46.476Z,100459.13
2019-02-07T19:21:17.896Z,100456.29
2019-02-07T19:23:49.327Z,100460.69
2019-02-07T19:26:21.582Z,100459.50
2019-02-07T19:28:53.085Z,100459.14
2019-02-07T19:31:24.468Z,100462.77
2019-02-07T19:34:01.693Z,100456.00
2019-02-07T19:36:33.137Z,100452.50
2019-02-07T19:39:07.934Z,100457.84
2019-02-07T19:41:40.188Z,100458.50
2019-02-07T19:44:18.152Z,100456.47
2019-02-07T19:46:51.679Z,100458.50
2019-02-07T19:49:23.267Z,100462.48
2019-02-07T19:51:54.949Z,100456.95
2019-02-07T19:54:26.831Z,100461.77
2019-02-07T19:56:58.639Z,100457.02
2019-02-07T19:59:30.223Z,100462.59
2019-02-07T20:02:01.626Z,100464.55
2019-02-07T20:04:34.630Z,100468.71
2019-02-07T20:07:06.254Z,100459.80
2019-02-07T20:09:37.732Z,100462.70
2019-02-07T20:12:09.379Z,100466.98
2019-02-07T20:14:40.923Z,100471.13
2019-02-07T20:17:12.349Z,100470.00
2019-02-07T20:19:43.729Z,100478.25
2019-02-07T20:22:20.238Z,100478.13
2019-02-07T20:24:50.880Z,100481.98
2019-02-07T20:27:23.333Z,100485.77
2019-02-07T20:29:54.738Z,100490.70
2019-02-07T20:32:26.180Z,100489.47
2019-02-07T20:34:59.074Z,100486.50
2019-02-07T20:37:30.436Z,100487.75
2019-02-07T20:40:01.754Z,100486.44
2019-02-07T20:42:34.458Z,100491.72
2019-02-07T20:45:10.885Z,100486.50
2019-02-07T20:47:42.885Z,100483.28
2019-02-07T20:50:27.291Z,100488.86
2019-02-07T20:52:59.939Z,100483.64
2019-02-07T20:55:31.442Z,100486.44
2019-02-07T20:58:02.942Z,100482.17
2019-02-07T21:00:38.311Z,100483.78
2019-02-07T21:03:10.449Z,100490.21
2019-02-07T21:05:42.112Z,100499.62
2019-02-07T21:08:13.768Z,100495.27
2019-02-07T21:10:45.463Z,100497.38
2019-02-07T21:13:16.948Z,100502.74
2019-02-07T21:15:48.332Z,100504.59
2019-02-07T21:18:19.861Z,100509.81
2019-02-07T21:20:51.323Z,100505.95
2019-02-07T21:23:23.270Z,100508.73
2019-02-07T21:25:54.948Z,100519.48
2019-02-07T21:28:27.276Z,100520.20
2019-02-07T21:30:58.656Z,100526.08
2019-02-07T21:33:30.158Z,100525.89
2019-02-07T21:36:01.685Z,100530.76
2019-02-07T21:38:33.480Z,100527.56
2019-02-07T21:41:05.448Z,100539.21
2019-02-07T21:43:36.914Z,100542.01
2019-02-07T21:46:09.364Z,100533.99
2019-02-07T21:48:40.887Z,100542.91
2019-02-07T21:51:12.361Z,100542.91
2019-02-07T21:53:45.161Z,100550.62
2019-02-07T21:56:16.575Z,100551.34
2019-02-07T21:58:49.593Z,100555.48
2019-02-07T22:01:22.213Z,100562.91
2019-02-07T22:03:53.562Z,100561.48
2019-02-07T22:06:24.939Z,100567.42
2019-02-07T22:08:56.453Z,100568.13
2019-02-07T22:11:27.757Z,100562.23
2019-02-07T22:13:59.115Z,100570.24
2019-02-07T22:16:30.495Z,100565.75
2019-02-07T22:19:02.113Z,100565.23
2019-02-07T22:21:33.359Z,100569.31
2019-02-07T22:24:04.773Z,100573.52
2019-02-07T22:26:36.079Z,100577.23
2019-02-07T22:29:07.489Z,100576.13
2019-02-07T22:31:40.081Z,100580.11
2019-02-07T22:34:11.421Z,100592.12
2019-02-07T22:36:42.735Z,100589.77
2019-02-07T22:39:14.083Z,100580.14
2019-02-07T22:41:45.412Z,100590.40
2019-02-07T22:44:17.176Z,100594.95
2019-02-07T22:46:48.468Z,100599.27
2019-02-07T22:49:19.746Z,100603.54
2019-02-07T22:51:51.115Z,100599.56
2019-02-07T22:54:22.679Z,100591.31
2019-02-07T22:56:53.907Z,100595.09
2019-02-07T22:59:25.184Z,100603.52
2019-02-07T23:01:57.433Z,100595.63
2019-02-07T23:04:28.846Z,100605.59
2019-02-07T23:07:00.152Z,100596.17
2019-02-07T23:09:31.713Z,100598.88
2019-02-07T23:12:03.160Z,100601.69
2019-02-07T23:14:34.674Z,100603.89
2019-02-07T23:17:06.452Z,100612.95
2019-02-07T23:19:37.994Z,100605.41
2019-02-07T23:22:09.362Z,100609.56
2019-02-07T23:24:41.775Z,100623.73
2019-02-07T23:27:13.144Z,100623.59
2019-02-07T23:29:44.510Z,100629.22
2019-02-07T23:32:15.738Z,100636.44
2019-02-07T23:34:47.011Z,100626.34
2019-02-07T23:37:18.291Z,100631.97
2019-02-07T23:39:49.533Z,100631.08
2019-02-07T23:42:23.823Z,100635.82
2019-02-07T23:45:08.936Z,100640.56
2019-02-07T23:47:42.493Z,100635.69
2019-02-07T23:50:17.395Z,100634.80
2019-02-07T23:52:48.750Z,100645.64
2019-02-07T23:55:20.125Z,100647.36
2019-02-07T23:57:51.616Z,100648.39
